»·PEaware :: N6233G KSEE-KPSP

N6233G :: KSEE-KPSP

FLIGHT INFORMATION

Flight Status: Arrived
Operator: Privately registered:
United States
More flights under this callsign
Pilot: Mark B. (9455)
Aircraft: BEECH AIRCRAFT DEBONAIR BONANZA
(BE33)
More flights by this aircraft type
Origin: KSEE Gillespie
United States
Destination: KPSP Palm Springs Intl
United States
More flights between these airports :: More routes between these airports
Route: JLI V208 TRM
File this flight plan on PilotEdge
Remarks:
Altitude:
(Current/Filed)
9,000ft
Speed:
(Current/Filed)
160kts
Departed: 29-Jun-20 07:26 PM
Arrived: 29-Jun-20 08:35 PM
Distance/Time
Traveled:
64nm/1:09
Distance/Time
To Go:
Arrived

Flight Plot

Page will automatically refresh every two minutes.


Map Options




Map Legend


Flown Route
Filed Route
Departure Airport
Arrival Airport
Navaid (VOR, NDB)
Fix

Horizontal Profiles

Position Reports

Time Latitude Longitude Heading Altitude Ground
Speed
29-Jun-20 19:06 32.824923 -116.968922 14 380ft 0kts
29-Jun-20 19:07 32.824923 -116.968922 14 380ft 0kts
29-Jun-20 19:08 32.824923 -116.968922 14 380ft 0kts
29-Jun-20 19:09 32.824923 -116.968922 14 380ft 0kts
29-Jun-20 19:10 32.824923 -116.968922 14 380ft 0kts
29-Jun-20 19:11 32.824923 -116.968922 14 380ft 0kts
29-Jun-20 19:12 32.824923 -116.968922 14 380ft 0kts
29-Jun-20 19:13 32.824923 -116.968922 14 380ft 0kts
29-Jun-20 19:14 32.824923 -116.968922 14 380ft 0kts
29-Jun-20 19:15 32.824923 -116.968922 14 380ft 0kts
29-Jun-20 19:16 32.824923 -116.968922 14 380ft 0kts
29-Jun-20 19:17 32.824923 -116.968922 14 380ft 0kts
29-Jun-20 19:18 32.824645 -116.966644 94 384ft 14kts
29-Jun-20 19:19 32.824883 -116.964594 44 389ft 0kts
29-Jun-20 19:20 32.825705 -116.964171 329 392ft 0kts
29-Jun-20 19:21 32.825705 -116.964171 329 392ft 0kts
29-Jun-20 19:22 32.825705 -116.964171 329 392ft 0kts
29-Jun-20 19:23 32.825705 -116.964171 329 392ft 0kts
29-Jun-20 19:24 32.825809 -116.964254 325 392ft 7kts
29-Jun-20 19:25 32.828500 -116.973912 288 486ft 87kts
29-Jun-20 19:26 32.837093 -116.992763 320 1453ft 87kts
29-Jun-20 19:27 32.853382 -116.999650 351 2245ft 100kts
29-Jun-20 19:28 32.871234 -117.003025 350 3056ft 102kts
29-Jun-20 19:29 32.893569 -117.007495 352 4013ft 105kts
29-Jun-20 19:30 32.915485 -116.994700 59 5036ft 106kts
29-Jun-20 19:31 32.927524 -116.968952 61 5943ft 107kts
29-Jun-20 19:32 32.939946 -116.944262 58 6755ft 108kts
29-Jun-20 19:33 32.953229 -116.919014 56 7560ft 108kts
29-Jun-20 19:34 32.969318 -116.891851 54 8378ft 110kts
29-Jun-20 19:35 32.984017 -116.867256 59 8906ft 125kts
29-Jun-20 19:36 33.000282 -116.834382 58 8919ft 162kts
29-Jun-20 19:37 33.022731 -116.799687 54 8963ft 170kts
29-Jun-20 19:38 33.045809 -116.759403 57 8940ft 172kts
29-Jun-20 19:39 33.068400 -116.718000 57 8989ft 172kts
29-Jun-20 19:40 33.092417 -116.675365 55 8987ft 173kts
29-Jun-20 19:41 33.116822 -116.630691 60 9057ft 166kts
29-Jun-20 19:42 33.137841 -116.588321 52 9240ft 166kts
29-Jun-20 19:43 33.167887 -116.556050 40 9231ft 171kts
29-Jun-20 19:44 33.202641 -116.529234 30 9190ft 175kts
29-Jun-20 19:45 33.239296 -116.501797 32 9212ft 174kts
29-Jun-20 19:46 33.273471 -116.471521 40 9207ft 173kts
29-Jun-20 19:47 33.303489 -116.440482 39 9201ft 174kts
29-Jun-20 19:48 33.336333 -116.412222 37 9194ft 174kts
29-Jun-20 19:49 33.368926 -116.385384 35 9234ft 172kts
29-Jun-20 19:50 33.401762 -116.348499 48 8906ft 185kts
29-Jun-20 19:51 33.431509 -116.303856 58 8328ft 192kts
29-Jun-20 19:52 33.454238 -116.257769 59 8198ft 181kts
29-Jun-20 19:53 33.475971 -116.213404 61 8181ft 176kts
29-Jun-20 19:54 33.495679 -116.168355 62 8053ft 171kts
29-Jun-20 19:55 33.524839 -116.138173 7 7416ft 143kts
29-Jun-20 19:56 33.560196 -116.143256 339 6164ft 121kts
29-Jun-20 19:57 33.590924 -116.152129 351 5166ft 98kts
29-Jun-20 19:58 33.617124 -116.157680 347 4644ft 95kts
29-Jun-20 19:59 33.638475 -116.175092 304 4232ft 89kts
29-Jun-20 20:00 33.650761 -116.200298 298 4285ft 91kts
29-Jun-20 20:01 33.654493 -116.232237 263 4363ft 101kts
29-Jun-20 20:02 33.656220 -116.269098 290 4236ft 113kts
29-Jun-20 20:03 33.665338 -116.305293 285 4244ft 110kts
29-Jun-20 20:04 33.671926 -116.341628 280 4251ft 110kts
29-Jun-20 20:05 33.682968 -116.374855 327 4185ft 114kts
29-Jun-20 20:06 33.708579 -116.395340 323 4233ft 111kts
29-Jun-20 20:07 33.727544 -116.412630 325 4364ft 100kts
29-Jun-20 20:08 33.741547 -116.425680 321 4965ft 88kts
29-Jun-20 20:09 33.763605 -116.426461 14 5242ft 119kts
29-Jun-20 20:10 33.794737 -116.412050 29 5170ft 126kts
29-Jun-20 20:11 33.807773 -116.376271 83 5174ft 122kts
29-Jun-20 20:12 33.808072 -116.337165 95 5164ft 120kts
29-Jun-20 20:13 33.800030 -116.298675 117 5171ft 120kts
29-Jun-20 20:14 33.783731 -116.264235 122 5214ft 119kts
29-Jun-20 20:15 33.766083 -116.230313 124 5216ft 120kts
29-Jun-20 20:16 33.748042 -116.196706 122 5258ft 118kts
29-Jun-20 20:17 33.728249 -116.165014 149 5221ft 122kts
29-Jun-20 20:18 33.695274 -116.165692 189 4866ft 122kts
29-Jun-20 20:19 33.662016 -116.165757 177 4430ft 115kts
29-Jun-20 20:20 33.642446 -116.185101 282 4213ft 100kts
29-Jun-20 20:21 33.655972 -116.212600 301 4223ft 97kts
29-Jun-20 20:22 33.667896 -116.238481 284 4417ft 80kts
29-Jun-20 20:23 33.678141 -116.266023 307 4350ft 95kts
29-Jun-20 20:25 33.694542 -116.286689 314 4372ft 95kts
29-Jun-20 20:26 33.713189 -116.308462 317 4081ft 101kts
29-Jun-20 20:27 33.731315 -116.334054 309 3936ft 102kts
29-Jun-20 20:28 33.748412 -116.361091 306 3612ft 100kts
29-Jun-20 20:29 33.762714 -116.390068 293 3242ft 105kts
29-Jun-20 20:30 33.772565 -116.419379 287 2365ft 94kts
29-Jun-20 20:31 33.779297 -116.445020 288 1884ft 93kts
29-Jun-20 20:32 33.786752 -116.466162 303 1406ft 82kts
29-Jun-20 20:33 33.801906 -116.483864 326 871ft 80kts
29-Jun-20 20:34 33.820641 -116.499623 323 439ft 78kts
29-Jun-20 20:35 33.828618 -116.508284 243 427ft 12kts

Navigation Log

Ident Type
Flight plan parsing failed, navigation log unavailable